Time;durP1;ratioP1;P1;durP2;ratioP2;P2;SDS_P1;SDS_P2;PMS_P1;PMS_P2;Temp;Humidity;BMP_temperature;BMP_pressure;BME280_temperature;BME280_humidity;BME280_pressure;Samples;Min_cycle;Max_cycle;Signal;HPM_P1;HPM_P2
2021/06/23 00:00:58;;;;;;;5.33;4.87;;;20.00;99.90;;;;;;5070811;28;20656;-94
2021/06/23 00:03:33;;;;;;;4.10;3.80;;;20.00;99.90;;;;;;5072877;28;20633;-96
2021/06/23 00:06:02;;;;;;;4.10;3.70;;;20.00;99.90;;;;;;5085284;28;20615;-96
2021/06/23 00:08:31;;;;;;;4.70;3.20;;;20.00;99.90;;;;;;5084634;28;20705;-96
2021/06/23 00:10:59;;;;;;;3.60;3.30;;;20.10;99.90;;;;;;5083840;28;20664;-96
2021/06/23 00:13:33;;;;;;;3.77;3.47;;;20.00;99.90;;;;;;5082006;28;20843;-96
2021/06/23 00:16:25;;;;;;;4.00;3.63;;;19.90;99.90;;;;;;5092932;28;21196;-96
2021/06/23 00:19:03;;;;;;;3.00;2.63;;;20.00;99.90;;;;;;5093242;28;20625;-96
2021/06/23 00:21:37;;;;;;;3.97;3.60;;;20.10;99.90;;;;;;5086167;28;20726;-96
2021/06/23 00:24:05;;;;;;;5.83;3.40;;;20.10;99.90;;;;;;5072692;28;20602;-94
2021/06/23 00:26:37;;;;;;;5.80;3.63;;;20.00;99.90;;;;;;5066012;28;20637;-95
2021/06/23 00:29:06;;;;;;;4.17;3.77;;;19.80;99.90;;;;;;5065752;28;20622;-96
2021/06/23 00:31:34;;;;;;;2.80;2.60;;;19.90;99.90;;;;;;5069184;28;20676;-95
2021/06/23 00:34:03;;;;;;;4.10;3.70;;;19.90;99.90;;;;;;5062737;28;20617;-95
2021/06/23 00:36:32;;;;;;;4.67;4.37;;;20.00;99.90;;;;;;5063691;28;20642;-95
2021/06/23 00:38:59;;;;;;;3.33;3.13;;;20.10;99.90;;;;;;5066033;28;20643;-95
2021/06/23 00:41:26;;;;;;;4.37;3.47;;;20.10;99.90;;;;;;5067865;28;20739;-94
2021/06/23 00:43:53;;;;;;;4.00;3.70;;;20.20;99.90;;;;;;5066158;28;20656;-94
2021/06/23 00:46:20;;;;;;;4.17;3.73;;;20.00;99.90;;;;;;5071602;28;21179;-95
2021/06/23 00:48:56;;;;;;;3.87;3.57;;;20.10;99.90;;;;;;5065848;28;20655;-95
2021/06/23 00:51:26;;;;;;;5.00;4.50;;;20.20;99.90;;;;;;5058228;28;20730;-95
2021/06/23 00:53:53;;;;;;;5.80;3.60;;;20.30;99.90;;;;;;5058948;28;20637;-96
2021/06/23 00:56:35;;;;;;;4.93;3.37;;;20.30;99.90;;;;;;5059107;28;20674;-96
2021/06/23 00:59:12;;;;;;;4.33;3.73;;;20.00;99.90;;;;;;5084426;28;20755;-96
2021/06/23 01:01:42;;;;;;;7.80;3.50;;;20.00;99.90;;;;;;5079128;28;21265;-96
2021/06/23 01:04:29;;;;;;;5.13;4.30;;;20.10;99.90;;;;;;5084149;28;20636;-96
2021/06/23 01:06:57;;;;;;;2.80;2.60;;;19.70;99.90;;;;;;5075089;28;20674;-96
2021/06/23 01:09:26;;;;;;;2.87;2.67;;;19.80;99.90;;;;;;5070436;28;20638;-96
2021/06/23 01:12:12;;;;;;;4.90;3.30;;;19.90;99.90;;;;;;5073132;28;20733;-96
2021/06/23 01:14:41;;;;;;;6.70;3.10;;;19.70;99.90;;;;;;5065175;28;21408;-96
2021/06/23 01:17:11;;;;;;;2.90;2.70;;;19.70;99.90;;;;;;5061883;28;20634;-96
2021/06/23 01:19:43;;;;;;;6.03;3.20;;;19.70;99.90;;;;;;5063848;28;20723;-96
2021/06/23 01:22:13;;;;;;;2.70;2.40;;;19.70;99.90;;;;;;5066688;28;20658;-95
2021/06/23 01:24:42;;;;;;;4.70;2.77;;;19.80;99.90;;;;;;5068170;28;20609;-95
2021/06/23 01:27:16;;;;;;;4.10;2.30;;;20.00;99.90;;;;;;5073015;28;20640;-96
2021/06/23 01:29:48;;;;;;;2.63;2.43;;;19.90;99.90;;;;;;5060852;28;20616;-96
2021/06/23 01:32:21;;;;;;;3.50;2.80;;;20.00;99.90;;;;;;5071217;28;21267;-95
2021/06/23 01:34:48;;;;;;;5.67;3.10;;;19.90;99.90;;;;;;5065231;28;20623;-95
2021/06/23 01:37:17;;;;;;;2.97;2.70;;;19.70;99.90;;;;;;5055082;28;21208;-95
2021/06/23 01:39:54;;;;;;;3.23;2.97;;;19.60;99.90;;;;;;5066351;28;20621;-96
2021/06/23 01:42:21;;;;;;;2.70;2.50;;;19.40;99.90;;;;;;5061079;28;20636;-95
2021/06/23 01:50:41;;;;;;;2.93;2.40;;;19.60;99.90;;;;;;5068294;28;21006;-96
2021/06/23 01:53:10;;;;;;;5.63;3.73;;;19.60;99.90;;;;;;5072309;28;20668;-96
2021/06/23 01:55:49;;;;;;;5.17;2.03;;;19.50;99.90;;;;;;5075244;28;20724;-96
2021/06/23 01:58:19;;;;;;;2.50;2.23;;;19.70;99.90;;;;;;5074246;28;20629;-96
2021/06/23 02:01:06;;;;;;;2.20;2.00;;;19.80;99.90;;;;;;5071107;28;21189;-96
2021/06/23 02:03:59;;;;;;;3.13;2.67;;;19.50;99.90;;;;;;5081590;28;20626;-96
2021/06/23 02:06:45;;;;;;;1.60;1.50;;;19.60;99.90;;;;;;5087851;28;20602;-96
2021/06/23 02:16:07;;;;;;;2.03;1.70;;;19.80;99.90;;;;;;5057177;28;20636;-96
2021/06/23 02:21:59;;;;;;;1.80;1.70;;;19.80;99.90;;;;;;5106128;22;20676;-96
2021/06/23 02:24:30;;;;;;;2.00;1.30;;;19.70;99.90;;;;;;5095698;28;20619;-96
2021/06/23 02:27:17;;;;;;;1.50;1.40;;;19.70;99.90;;;;;;5093561;28;20616;-96
2021/06/23 02:29:48;;;;;;;1.70;1.20;;;19.70;99.90;;;;;;5094323;28;20628;-96
2021/06/23 02:32:42;;;;;;;1.90;1.80;;;19.70;99.90;;;;;;5096697;28;20649;-96
2021/06/23 02:35:10;;;;;;;1.60;1.50;;;19.50;99.90;;;;;;5097661;28;20621;-96
2021/06/23 02:37:41;;;;;;;3.23;2.07;;;19.40;99.90;;;;;;5097009;28;20704;-96
2021/06/23 02:40:10;;;;;;;3.67;1.83;;;19.60;99.90;;;;;;5098202;28;20645;-96
2021/06/23 02:42:38;;;;;;;2.60;1.80;;;19.50;99.90;;;;;;5098566;28;20631;-96
2021/06/23 02:45:26;;;;;;;3.27;1.30;;;19.30;99.90;;;;;;5098695;28;20661;-96
2021/06/23 02:47:58;;;;;;;2.07;1.60;;;19.50;99.90;;;;;;5087017;28;20706;-96
2021/06/23 02:50:36;;;;;;;2.60;1.27;;;19.50;99.90;;;;;;5078620;28;20684;-96
2021/06/23 02:53:44;;;;;;;6.63;1.50;;;19.50;99.90;;;;;;5097777;28;20643;-96
2021/06/23 02:56:24;;;;;;;1.60;1.50;;;19.60;99.90;;;;;;5081817;28;21219;-96
2021/06/23 02:58:52;;;;;;;2.10;1.70;;;19.60;99.90;;;;;;5082189;28;20652;-96
2021/06/23 03:01:19;;;;;;;3.23;1.50;;;19.40;99.90;;;;;;5086713;28;21245;-96
2021/06/23 03:03:52;;;;;;;9.60;1.40;;;19.10;99.90;;;;;;5087360;28;20724;-96
2021/06/23 03:06:24;;;;;;;3.10;1.43;;;19.10;99.90;;;;;;5086247;28;20677;-96
2021/06/23 03:09:01;;;;;;;1.60;1.50;;;19.20;99.90;;;;;;5068376;28;20648;-96
2021/06/23 03:11:35;;;;;;;1.40;1.20;;;19.30;99.90;;;;;;5066690;28;20736;-96
2021/06/23 03:14:02;;;;;;;1.70;1.60;;;19.40;99.90;;;;;;5083312;28;20764;-96
2021/06/23 03:16:30;;;;;;;2.50;1.60;;;19.40;99.90;;;;;;5075397;28;21261;-92
2021/06/23 03:18:58;;;;;;;1.97;1.80;;;19.30;99.90;;;;;;5066289;28;20652;-93
2021/06/23 03:21:25;;;;;;;2.43;1.80;;;18.30;99.90;;;;;;5065402;28;20653;-95
2021/06/23 03:23:56;;;;;;;1.77;1.67;;;17.70;99.90;;;;;;5053618;28;20716;-93
2021/06/23 03:26:24;;;;;;;3.40;2.17;;;17.50;99.90;;;;;;5057798;28;21312;-92
2021/06/23 03:28:52;;;;;;;2.40;2.20;;;17.30;99.90;;;;;;5065432;28;20637;-93
2021/06/23 03:31:18;;;;;;;2.90;1.90;;;17.10;99.90;;;;;;5061378;28;20648;-93
2021/06/23 03:33:45;;;;;;;6.40;2.67;;;17.00;99.90;;;;;;5062357;28;21043;-92
2021/06/23 03:36:14;;;;;;;3.07;2.10;;;16.90;99.90;;;;;;5061243;28;20961;-94
2021/06/23 03:38:40;;;;;;;3.10;2.37;;;16.90;99.90;;;;;;5062800;28;20629;-93
2021/06/23 03:41:08;;;;;;;8.83;3.13;;;16.80;99.90;;;;;;5064770;28;20637;-94
2021/06/23 03:43:36;;;;;;;3.10;2.10;;;16.70;99.90;;;;;;5059376;28;20622;-93
2021/06/23 03:46:02;;;;;;;2.17;2.00;;;16.80;99.90;;;;;;5063920;28;20622;-93
2021/06/23 03:48:32;;;;;;;2.60;2.40;;;16.80;99.90;;;;;;5062424;28;20637;-93
2021/06/23 03:50:59;;;;;;;3.50;2.70;;;16.80;99.90;;;;;;5065545;28;20681;-93
2021/06/23 03:53:31;;;;;;;4.30;2.80;;;16.80;99.90;;;;;;5064775;28;20663;-92
2021/06/23 03:55:58;;;;;;;3.57;2.60;;;16.80;99.90;;;;;;5064757;28;20621;-95
2021/06/23 03:58:25;;;;;;;3.30;2.47;;;16.80;99.90;;;;;;5066293;28;20625;-95
2021/06/23 04:00:58;;;;;;;2.97;2.77;;;16.80;99.90;;;;;;5067221;28;20759;-94
2021/06/23 04:03:25;;;;;;;3.60;3.30;;;16.80;99.90;;;;;;5063056;28;20626;-94
2021/06/23 04:05:52;;;;;;;3.87;2.23;;;16.80;99.90;;;;;;5067186;28;20653;-95
2021/06/23 04:08:18;;;;;;;2.60;2.40;;;16.80;99.90;;;;;;5066289;28;20638;-95
2021/06/23 04:10:47;;;;;;;3.53;2.90;;;16.70;99.90;;;;;;5066805;28;21265;-95
2021/06/23 04:13:15;;;;;;;3.37;2.63;;;16.70;99.90;;;;;;5063269;28;21156;-94
2021/06/23 04:15:45;;;;;;;5.23;3.27;;;16.90;99.90;;;;;;5066696;28;21167;-94
2021/06/23 04:18:12;;;;;;;9.43;3.80;;;16.80;99.90;;;;;;5061600;28;20621;-94
2021/06/23 04:20:39;;;;;;;3.40;3.10;;;16.80;99.90;;;;;;5063134;28;20661;-94
2021/06/23 04:23:06;;;;;;;3.40;3.07;;;16.80;99.90;;;;;;5065146;28;21167;-95
2021/06/23 04:25:34;;;;;;;5.67;2.87;;;16.90;99.90;;;;;;5068835;28;21176;-95
2021/06/23 04:28:02;;;;;;;3.60;3.30;;;17.00;99.90;;;;;;5071630;28;20609;-94
2021/06/23 04:30:29;;;;;;;2.37;2.17;;;17.10;99.90;;;;;;5071066;28;20663;-95
2021/06/23 04:32:59;;;;;;;2.03;1.93;;;17.20;99.90;;;;;;5071220;28;20745;-94
2021/06/23 04:35:28;;;;;;;4.03;2.37;;;17.40;99.90;;;;;;5065647;28;20808;-95
2021/06/23 04:37:54;;;;;;;3.37;2.60;;;17.70;99.90;;;;;;5069362;28;21051;-92
2021/06/23 04:40:21;;;;;;;2.50;2.30;;;17.90;99.90;;;;;;5069279;28;20671;-92
2021/06/23 04:42:48;;;;;;;6.83;2.70;;;17.70;99.90;;;;;;5068379;28;20630;-92
2021/06/23 04:45:17;;;;;;;2.80;2.60;;;17.50;99.90;;;;;;5072879;28;20640;-93
2021/06/23 04:47:45;;;;;;;3.13;2.73;;;17.40;99.90;;;;;;5067718;28;20637;-93
2021/06/23 04:50:13;;;;;;;4.40;2.87;;;17.40;99.90;;;;;;5068902;28;20681;-93
2021/06/23 04:52:40;;;;;;;4.10;2.27;;;17.40;99.90;;;;;;5071268;28;20632;-94
2021/06/23 04:55:08;;;;;;;2.77;2.30;;;17.40;99.90;;;;;;5070999;28;20630;-93
2021/06/23 04:57:38;;;;;;;3.30;2.83;;;17.60;99.90;;;;;;5065314;28;20656;-92
2021/06/23 05:00:07;;;;;;;4.10;2.70;;;17.90;99.90;;;;;;5068890;28;20645;-93
2021/06/23 05:02:35;;;;;;;4.30;3.90;;;18.00;99.90;;;;;;5070411;28;20667;-93
2021/06/23 05:05:02;;;;;;;3.90;3.60;;;17.90;99.90;;;;;;5070483;28;20621;-93
2021/06/23 05:07:42;;;;;;;3.67;3.37;;;17.80;99.90;;;;;;5074578;28;20585;-91
2021/06/23 05:10:13;;;;;;;3.73;3.13;;;17.70;99.90;;;;;;5078792;28;20663;-93
2021/06/23 05:12:40;;;;;;;4.13;3.80;;;17.80;99.90;;;;;;5082220;28;20721;-93
2021/06/23 05:15:08;;;;;;;4.30;4.00;;;18.00;99.90;;;;;;5090563;28;20636;-92
2021/06/23 05:17:37;;;;;;;5.57;3.70;;;17.90;99.90;;;;;;5069988;28;20683;-88
2021/06/23 05:20:05;;;;;;;4.40;3.50;;;17.90;99.90;;;;;;5058868;28;20628;-89
2021/06/23 05:22:34;;;;;;;3.60;3.20;;;18.10;99.90;;;;;;5060642;28;21705;-88
2021/06/23 05:25:03;;;;;;;7.30;3.30;;;18.10;99.90;;;;;;5060976;28;21208;-87
2021/06/23 05:27:30;;;;;;;4.90;3.50;;;18.20;99.90;;;;;;5057974;28;20625;-89
2021/06/23 05:29:57;;;;;;;3.87;2.80;;;18.20;99.90;;;;;;5060820;28;20633;-89
2021/06/23 05:32:24;;;;;;;3.27;2.97;;;18.20;99.90;;;;;;5062076;28;20644;-88
2021/06/23 05:34:53;;;;;;;6.20;3.00;;;18.20;99.90;;;;;;5059821;28;20673;-89
2021/06/23 05:37:20;;;;;;;8.10;3.23;;;18.30;99.90;;;;;;5052734;28;20616;-89
2021/06/23 05:39:48;;;;;;;3.47;2.93;;;18.50;99.90;;;;;;5060521;28;20616;-90
2021/06/23 05:42:16;;;;;;;3.10;2.80;;;18.60;99.90;;;;;;5062095;28;20675;-92
2021/06/23 05:44:43;;;;;;;2.10;1.97;;;18.60;99.90;;;;;;5064985;28;20676;-91
2021/06/23 05:47:10;;;;;;;3.93;2.37;;;18.80;99.90;;;;;;5068437;28;20612;-89
2021/06/23 05:49:37;;;;;;;4.53;2.33;;;18.90;99.90;;;;;;5060121;28;20651;-88
2021/06/23 05:52:07;;;;;;;6.93;2.60;;;18.90;99.90;;;;;;5063868;28;20631;-88
2021/06/23 05:54:34;;;;;;;2.13;1.97;;;19.00;99.90;;;;;;5063406;28;20680;-89
2021/06/23 05:57:01;;;;;;;2.47;2.00;;;18.90;99.90;;;;;;5062460;28;21015;-88
2021/06/23 05:59:29;;;;;;;3.37;1.97;;;18.80;99.90;;;;;;5060799;28;20633;-88
2021/06/23 06:01:57;;;;;;;8.87;3.10;;;19.00;99.90;;;;;;5055430;28;20638;-89
2021/06/23 06:04:25;;;;;;;2.47;2.27;;;18.90;99.90;;;;;;5056682;28;20646;-89
2021/06/23 06:06:52;;;;;;;6.30;2.17;;;19.10;99.90;;;;;;5065118;28;20686;-89
2021/06/23 06:09:20;;;;;;;2.40;2.20;;;19.10;99.90;;;;;;5056451;28;21156;-88
2021/06/23 06:11:47;;;;;;;1.63;1.53;;;19.10;99.90;;;;;;5063984;28;20632;-89
2021/06/23 06:14:14;;;;;;;3.07;2.10;;;19.10;99.90;;;;;;5065000;28;20676;-89
2021/06/23 06:16:42;;;;;;;1.73;1.53;;;19.10;99.90;;;;;;5066057;28;20966;-89
2021/06/23 06:19:09;;;;;;;2.07;1.57;;;19.20;99.90;;;;;;5062140;28;20578;-90
2021/06/23 06:21:36;;;;;;;3.10;2.40;;;19.20;99.90;;;;;;5063655;28;21010;-89
2021/06/23 06:24:03;;;;;;;3.00;2.80;;;19.10;99.90;;;;;;5063798;28;21218;-89
2021/06/23 06:26:31;;;;;;;2.80;2.30;;;19.20;99.90;;;;;;5063511;28;20637;-88
2021/06/23 06:28:58;;;;;;;3.43;2.13;;;19.10;99.90;;;;;;5062669;28;20621;-90
2021/06/23 06:31:26;;;;;;;2.97;1.97;;;19.10;99.90;;;;;;5064491;28;20709;-88
2021/06/23 06:33:52;;;;;;;6.90;1.60;;;19.00;99.90;;;;;;5062682;28;20669;-90
2021/06/23 06:36:20;;;;;;;2.43;1.70;;;19.00;99.90;;;;;;5056928;28;20651;-89
2021/06/23 06:38:47;;;;;;;2.07;1.30;;;19.10;99.90;;;;;;5064536;28;20621;-89
2021/06/23 06:41:13;;;;;;;9.50;2.07;;;19.00;99.90;;;;;;5062904;28;20622;-90
2021/06/23 06:43:41;;;;;;;5.13;2.17;;;19.10;99.90;;;;;;5062927;28;20621;-90
2021/06/23 06:46:08;;;;;;;2.03;1.80;;;19.10;99.90;;;;;;5060594;28;20633;-91
2021/06/23 06:48:36;;;;;;;5.80;2.20;;;19.10;99.90;;;;;;5060678;28;21534;-88
2021/06/23 06:51:04;;;;;;;2.30;2.10;;;19.30;99.90;;;;;;5061683;28;20624;-90
2021/06/23 06:53:31;;;;;;;1.80;1.70;;;19.30;99.90;;;;;;5058317;28;21236;-90
2021/06/23 06:55:58;;;;;;;1.53;1.43;;;19.40;99.90;;;;;;5056304;28;20657;-89
2021/06/23 06:58:25;;;;;;;2.93;1.83;;;19.60;99.90;;;;;;5060475;28;20621;-91
2021/06/23 07:00:53;;;;;;;1.87;1.70;;;19.70;99.90;;;;;;5066335;28;20625;-91
2021/06/23 07:03:20;;;;;;;7.90;2.57;;;20.00;99.90;;;;;;5064345;28;20613;-93
2021/06/23 07:05:49;;;;;;;4.10;1.90;;;19.90;99.90;;;;;;5064360;28;20672;-95
2021/06/23 07:08:16;;;;;;;2.40;1.90;;;19.90;99.90;;;;;;5067525;28;20654;-94
2021/06/23 07:10:45;;;;;;;3.60;2.30;;;20.00;99.90;;;;;;5072494;28;20632;-93
2021/06/23 07:13:12;;;;;;;2.30;1.90;;;20.10;99.90;;;;;;5064985;28;20648;-92
2021/06/23 07:15:39;;;;;;;3.50;1.00;;;20.30;99.90;;;;;;5066351;28;20673;-93
2021/06/23 07:18:07;;;;;;;4.60;1.77;;;20.30;99.90;;;;;;5066550;28;20648;-91
2021/06/23 07:20:34;;;;;;;1.60;0.97;;;20.40;99.90;;;;;;5061447;28;20622;-91
2021/06/23 07:23:01;;;;;;;3.13;1.90;;;20.50;99.90;;;;;;5068029;28;20637;-91
2021/06/23 07:25:28;;;;;;;1.93;1.20;;;20.80;99.90;;;;;;5066008;28;20625;-92
2021/06/23 07:27:54;;;;;;;1.57;1.47;;;20.90;99.90;;;;;;5062105;28;20645;-88
2021/06/23 07:30:22;;;;;;;9.03;2.23;;;21.00;99.90;;;;;;5060570;28;20621;-88
2021/06/23 07:32:52;;;;;;;6.27;1.33;;;21.20;99.90;;;;;;5062724;28;20629;-88
2021/06/23 07:38:07;;;;;;;4.47;1.40;;;21.30;99.90;;;;;;5065043;28;21411;-88
2021/06/23 07:43:16;;;;;;;3.23;1.50;;;21.50;99.90;;;;;;5059369;28;20663;-90
2021/06/23 07:45:46;;;;;;;2.50;1.20;;;21.70;99.90;;;;;;5066186;28;20625;-90
2021/06/23 07:48:22;;;;;;;1.40;1.00;;;21.70;99.90;;;;;;5065077;28;20702;-94
2021/06/23 07:50:55;;;;;;;7.93;2.10;;;21.80;99.90;;;;;;5064942;28;20613;-92
2021/06/23 07:53:28;;;;;;;3.00;1.43;;;21.80;99.90;;;;;;5070481;28;21199;-92
2021/06/23 07:56:06;;;;;;;1.43;1.00;;;21.80;99.90;;;;;;5069713;28;20656;-92
2021/06/23 08:02:01;;;;;;;6.13;1.57;;;21.70;99.90;;;;;;5078069;28;20563;-92
2021/06/23 08:10:09;;;;;;;1.03;0.80;;;22.00;99.90;;;;;;5068072;28;20620;-93
2021/06/23 08:12:43;;;;;;;1.83;1.10;;;22.10;99.90;;;;;;5080954;28;20643;-91
2021/06/23 08:15:12;;;;;;;1.70;1.30;;;22.00;99.90;;;;;;5079491;28;20656;-92
2021/06/23 08:17:46;;;;;;;1.03;1.03;;;21.80;99.90;;;;;;5087787;28;20668;-93
2021/06/23 08:20:14;;;;;;;1.27;1.17;;;21.90;99.90;;;;;;5084769;28;21061;-93
2021/06/23 08:22:45;;;;;;;1.37;1.27;;;21.70;99.90;;;;;;5076359;28;20621;-92
2021/06/23 08:25:13;;;;;;;3.33;1.43;;;21.80;99.90;;;;;;5067019;28;20676;-93
2021/06/23 08:27:49;;;;;;;2.53;1.40;;;22.00;99.90;;;;;;5076731;28;20625;-92
2021/06/23 08:30:19;;;;;;;2.43;1.67;;;22.20;99.90;;;;;;5065658;28;20742;-92
2021/06/23 08:32:48;;;;;;;1.83;1.40;;;22.40;99.90;;;;;;5068255;28;20639;-93
2021/06/23 08:35:19;;;;;;;1.30;1.23;;;22.50;99.90;;;;;;5062548;28;20700;-92
2021/06/23 08:37:47;;;;;;;8.10;1.40;;;22.60;99.90;;;;;;5068334;28;20629;-93
2021/06/23 08:40:16;;;;;;;11.90;4.10;;;22.70;99.90;;;;;;5073608;28;20649;-93
2021/06/23 08:42:43;;;;;;;1.53;1.43;;;22.80;99.90;;;;;;5068480;28;20605;-93
2021/06/23 08:45:12;;;;;;;1.77;1.20;;;22.80;99.90;;;;;;5076758;28;20655;-91
2021/06/23 08:47:43;;;;;;;1.67;1.57;;;22.70;99.90;;;;;;5067541;28;20628;-92
2021/06/23 08:50:15;;;;;;;1.10;1.00;;;22.60;99.90;;;;;;5064832;28;21019;-93
2021/06/23 08:52:44;;;;;;;2.03;1.00;;;22.70;99.90;;;;;;5069191;28;20712;-93
2021/06/23 08:55:19;;;;;;;6.57;1.73;;;22.80;99.90;;;;;;5064238;28;20664;-93
2021/06/23 08:57:49;;;;;;;2.43;1.53;;;23.10;99.90;;;;;;5067155;28;20635;-94
2021/06/23 09:00:19;;;;;;;4.50;1.07;;;23.10;99.90;;;;;;5067695;28;20772;-94
2021/06/23 09:02:47;;;;;;;0.90;0.90;;;23.30;99.90;;;;;;5070018;28;20632;-95
2021/06/23 09:05:15;;;;;;;1.43;1.17;;;23.40;99.90;;;;;;5072341;28;20676;-94
2021/06/23 09:07:48;;;;;;;2.73;1.17;;;23.50;99.90;;;;;;5067016;28;20662;-94
2021/06/23 09:10:40;;;;;;;1.30;1.10;;;23.50;99.90;;;;;;5069922;28;20648;-95
2021/06/23 09:13:20;;;;;;;0.93;0.80;;;23.70;99.90;;;;;;5069749;28;20621;-95
2021/06/23 09:15:51;;;;;;;5.63;1.20;;;23.80;99.90;;;;;;5067997;28;20667;-94
2021/06/23 09:18:19;;;;;;;1.57;0.90;;;24.00;99.90;;;;;;5067152;28;20628;-95
2021/06/23 09:20:47;;;;;;;2.00;0.83;;;24.00;99.90;;;;;;5068946;28;20772;-96
2021/06/23 09:23:15;;;;;;;1.07;0.60;;;24.00;99.20;;;;;;5062864;28;20636;-94
2021/06/23 09:25:46;;;;;;;0.53;0.53;;;24.00;99.90;;;;;;5075496;28;20648;-93
2021/06/23 09:28:19;;;;;;;1.10;0.70;;;24.10;99.30;;;;;;5082377;28;20624;-94
2021/06/23 09:30:48;;;;;;;1.07;0.80;;;24.00;98.60;;;;;;5077588;28;20655;-94
2021/06/23 09:33:20;;;;;;;0.97;0.97;;;24.00;99.40;;;;;;5071035;28;20639;-94
2021/06/23 09:35:59;;;;;;;1.20;0.80;;;24.00;99.30;;;;;;5069872;28;20665;-94
2021/06/23 09:38:40;;;;;;;1.83;0.70;;;23.90;99.90;;;;;;5070098;28;20613;-95
2021/06/23 09:41:23;;;;;;;0.87;0.70;;;23.90;99.90;;;;;;5068232;28;20755;-94
2021/06/23 09:43:53;;;;;;;3.90;0.80;;;24.00;99.90;;;;;;5068929;28;20629;-95
2021/06/23 09:46:25;;;;;;;1.20;1.10;;;24.10;99.90;;;;;;5063028;28;20655;-95
2021/06/23 09:49:04;;;;;;;2.63;0.77;;;24.30;99.90;;;;;;5068752;28;21536;-94
2021/06/23 09:51:43;;;;;;;1.23;0.93;;;24.30;99.90;;;;;;5067605;28;20649;-94
2021/06/23 09:54:20;;;;;;;0.80;0.80;;;24.30;99.90;;;;;;5067803;28;20637;-95
2021/06/23 09:57:13;;;;;;;1.00;0.60;;;24.20;99.90;;;;;;5071532;28;20671;-96
2021/06/23 09:59:50;;;;;;;2.30;0.67;;;24.40;99.90;;;;;;5079238;28;20617;-96
2021/06/23 10:02:28;;;;;;;0.80;0.57;;;24.70;99.90;;;;;;5078314;28;20633;-95
2021/06/23 10:05:01;;;;;;;0.93;0.53;;;24.80;99.90;;;;;;5076403;28;20667;-95
2021/06/23 10:07:44;;;;;;;0.87;0.87;;;24.90;98.80;;;;;;5072473;28;20669;-96
2021/06/23 10:10:17;;;;;;;0.83;0.83;;;24.80;98.90;;;;;;5073252;28;20613;-95
2021/06/23 10:12:49;;;;;;;0.70;0.70;;;24.70;99.00;;;;;;5067356;28;20669;-95
2021/06/23 10:15:25;;;;;;;1.43;1.00;;;25.00;99.90;;;;;;5073851;28;20689;-96
2021/06/23 10:17:57;;;;;;;0.63;0.60;;;24.90;99.70;;;;;;5080721;28;20620;-96
2021/06/23 10:20:26;;;;;;;0.80;0.80;;;25.10;99.90;;;;;;5070689;28;20642;-96
2021/06/23 10:22:56;;;;;;;1.03;0.90;;;25.00;99.90;;;;;;5067016;28;20645;-95
2021/06/23 10:25:28;;;;;;;1.63;0.93;;;24.80;99.90;;;;;;5086865;28;20664;-96
2021/06/23 10:28:03;;;;;;;1.03;0.93;;;25.30;99.90;;;;;;5081394;28;20980;-96
2021/06/23 10:31:18;;;;;;;0.90;0.80;;;25.70;98.80;;;;;;5086418;28;20635;-96
2021/06/23 10:34:14;;;;;;;1.47;0.77;;;25.80;99.80;;;;;;5086077;28;20625;-96
2021/06/23 10:36:58;;;;;;;1.43;0.83;;;26.00;98.70;;;;;;5089060;28;20644;-96
2021/06/23 10:45:45;;;;;;;0.70;0.70;;;25.40;97.40;;;;;;5091472;28;20652;-96
2021/06/23 10:48:53;;;;;;;1.20;1.10;;;26.10;98.20;;;;;;5082442;28;20625;-96
2021/06/23 10:51:36;;;;;;;0.70;0.70;;;26.50;95.50;;;;;;5082048;28;20624;-96
2021/06/23 10:54:40;;;;;;;1.37;1.27;;;26.60;95.00;;;;;;5087408;28;20614;-96
2021/06/23 10:57:26;;;;;;;1.23;0.83;;;26.70;94.10;;;;;;5074895;28;20723;-96
2021/06/23 11:00:03;;;;;;;0.93;0.80;;;26.90;96.30;;;;;;5074432;28;20717;-96
2021/06/23 11:02:39;;;;;;;0.73;0.70;;;27.20;96.40;;;;;;5072756;28;21228;-96
2021/06/23 11:05:20;;;;;;;1.63;0.80;;;27.40;96.30;;;;;;5084817;28;20645;-96
2021/06/23 11:07:59;;;;;;;1.33;0.70;;;27.10;96.40;;;;;;5096313;23;20727;-96
2021/06/23 11:10:34;;;;;;;1.23;0.67;;;26.80;95.00;;;;;;5070386;28;20633;-95
2021/06/23 11:13:10;;;;;;;0.60;0.53;;;26.60;96.20;;;;;;5069209;28;20631;-95
2021/06/23 11:15:44;;;;;;;0.60;0.60;;;26.80;96.40;;;;;;5070083;28;20660;-95
2021/06/23 11:18:26;;;;;;;1.90;0.80;;;27.20;95.20;;;;;;5058501;28;20659;-96
2021/06/23 11:21:20;;;;;;;4.47;0.80;;;27.20;95.90;;;;;;5046532;28;20634;-95
2021/06/23 11:23:58;;;;;;;0.60;0.57;;;27.60;94.70;;;;;;5060797;28;20631;-95
2021/06/23 11:26:56;;;;;;;0.60;0.60;;;27.90;93.80;;;;;;5068455;28;20680;-94
2021/06/23 11:29:36;;;;;;;1.03;0.60;;;28.40;92.70;;;;;;5052433;28;20674;-95
2021/06/23 11:32:10;;;;;;;0.70;0.70;;;27.70;93.70;;;;;;5047137;28;20664;-95
2021/06/23 11:34:56;;;;;;;1.10;1.00;;;27.10;93.10;;;;;;5046152;28;20627;-94
2021/06/23 11:37:36;;;;;;;1.23;0.80;;;27.20;93.20;;;;;;5057167;28;20666;-95
2021/06/23 11:40:20;;;;;;;1.20;0.70;;;27.70;93.80;;;;;;5053603;28;20652;-95
2021/06/23 11:42:51;;;;;;;0.70;0.60;;;27.70;93.20;;;;;;5045760;28;20626;-94
2021/06/23 11:45:22;;;;;;;0.80;0.60;;;27.30;92.90;;;;;;5056584;28;20633;-93
2021/06/23 11:47:49;;;;;;;1.17;0.70;;;27.50;91.60;;;;;;5055453;28;20684;-96
2021/06/23 11:50:16;;;;;;;1.10;0.80;;;28.30;92.70;;;;;;5055763;28;20619;-94
2021/06/23 11:52:50;;;;;;;1.43;0.83;;;28.70;91.60;;;;;;5048889;28;20622;-94
2021/06/23 11:55:26;;;;;;;3.97;0.77;;;29.40;91.70;;;;;;5057205;28;21192;-93
2021/06/23 11:58:01;;;;;;;0.93;0.60;;;29.70;90.00;;;;;;5047458;28;20656;-94
2021/06/23 12:00:32;;;;;;;1.30;0.87;;;29.20;88.40;;;;;;5052406;28;20626;-95
2021/06/23 12:03:01;;;;;;;0.90;0.60;;;28.90;88.90;;;;;;5053483;28;20622;-94
2021/06/23 12:05:31;;;;;;;0.70;0.60;;;28.30;90.00;;;;;;5047925;28;20618;-94
2021/06/23 12:07:58;;;;;;;0.83;0.70;;;28.20;91.50;;;;;;5052298;28;21312;-94
2021/06/23 12:10:32;;;;;;;1.13;0.60;;;28.40;86.50;;;;;;5038283;28;20623;-95
2021/06/23 12:13:01;;;;;;;0.97;0.50;;;28.70;90.10;;;;;;5045614;28;20610;-94
2021/06/23 12:15:31;;;;;;;2.70;0.77;;;29.70;85.00;;;;;;5040299;28;20773;-93
2021/06/23 12:17:59;;;;;;;0.70;0.40;;;30.40;82.10;;;;;;5042736;28;21512;-96
2021/06/23 12:20:31;;;;;;;0.70;0.43;;;30.50;80.70;;;;;;5043937;28;20658;-96
2021/06/23 12:23:00;;;;;;;0.90;0.70;;;29.40;85.50;;;;;;5044120;28;20675;-95
2021/06/23 12:25:31;;;;;;;0.90;0.70;;;28.50;87.00;;;;;;5043399;28;20642;-95
2021/06/23 12:27:59;;;;;;;1.43;0.70;;;28.70;89.00;;;;;;5042986;28;21281;-95
2021/06/23 12:30:28;;;;;;;1.37;0.60;;;29.00;85.70;;;;;;5044827;28;20691;-94
2021/06/23 12:33:02;;;;;;;0.80;0.50;;;29.70;85.10;;;;;;5051874;28;20661;-94
2021/06/23 12:35:35;;;;;;;0.80;0.60;;;30.30;87.00;;;;;;5045145;28;20657;-94
2021/06/23 12:38:07;;;;;;;0.80;0.60;;;30.90;82.30;;;;;;5039249;28;20638;-95
2021/06/23 12:40:39;;;;;;;1.47;0.60;;;31.00;82.00;;;;;;5052792;28;20667;-95
2021/06/23 12:43:10;;;;;;;1.13;0.70;;;30.80;80.90;;;;;;5044853;28;20660;-95
2021/06/23 12:45:37;;;;;;;0.70;0.40;;;31.10;80.10;;;;;;5042014;28;20651;-95
2021/06/23 12:48:04;;;;;;;0.67;0.40;;;30.70;78.90;;;;;;5047057;28;20644;-95
2021/06/23 12:50:35;;;;;;;0.90;0.50;;;31.00;77.70;;;;;;5046998;28;20641;-95
2021/06/23 12:53:04;;;;;;;1.47;0.63;;;31.60;75.80;;;;;;5046703;28;20692;-94
2021/06/23 12:55:31;;;;;;;1.00;0.60;;;31.50;76.80;;;;;;5048925;28;20771;-94
2021/06/23 12:58:00;;;;;;;0.90;0.53;;;32.00;73.10;;;;;;5048883;28;20735;-94
2021/06/23 13:00:30;;;;;;;0.70;0.50;;;31.80;73.70;;;;;;5047513;28;20625;-95
2021/06/23 13:03:00;;;;;;;0.70;0.50;;;31.10;75.80;;;;;;5048589;28;20666;-95
2021/06/23 13:05:27;;;;;;;0.70;0.60;;;30.50;77.70;;;;;;5045259;28;20648;-94
2021/06/23 13:07:55;;;;;;;1.63;0.60;;;30.00;77.00;;;;;;5043718;28;20723;-96
2021/06/23 13:10:22;;;;;;;0.90;0.63;;;29.30;78.10;;;;;;5047786;28;20733;-95
2021/06/23 13:12:51;;;;;;;1.07;0.67;;;28.50;80.80;;;;;;5047950;28;20681;-96
2021/06/23 13:15:37;;;;;;;0.97;0.60;;;28.80;81.60;;;;;;5048382;28;21578;-96
2021/06/23 13:18:10;;;;;;;1.37;0.80;;;28.50;82.20;;;;;;5050778;28;20653;-96
2021/06/23 13:20:39;;;;;;;1.60;0.70;;;28.20;81.80;;;;;;5051404;28;20733;-96
2021/06/23 13:23:19;;;;;;;0.70;0.60;;;28.10;82.40;;;;;;5052113;28;20662;-96
2021/06/23 13:25:52;;;;;;;0.80;0.60;;;27.80;83.10;;;;;;5044111;28;20613;-96
2021/06/23 13:28:20;;;;;;;1.00;0.53;;;28.00;83.20;;;;;;5051779;28;20629;-96
2021/06/23 13:30:49;;;;;;;1.33;0.60;;;28.20;80.70;;;;;;5046330;28;20688;-96
2021/06/23 13:33:16;;;;;;;0.60;0.50;;;28.50;83.20;;;;;;5048607;28;20659;-95
2021/06/23 13:35:43;;;;;;;0.70;0.47;;;29.10;81.50;;;;;;5043749;28;21299;-96
2021/06/23 13:38:10;;;;;;;0.80;0.50;;;29.50;78.70;;;;;;5044619;28;20630;-96
2021/06/23 13:40:37;;;;;;;0.80;0.63;;;30.30;80.00;;;;;;5050248;28;21192;-96
2021/06/23 13:43:10;;;;;;;1.40;1.00;;;30.40;77.00;;;;;;5049050;28;20753;-96
2021/06/23 13:45:38;;;;;;;6.80;2.07;;;31.30;75.20;;;;;;5052255;28;20618;-96
2021/06/23 13:48:09;;;;;;;4.90;1.40;;;30.30;80.30;;;;;;5042270;28;20626;-96